KBML/BML METAR and TAF weather

Enter ICAO airport designator
Station Type Date Time Source
KBML METAR 2020/07/06 09:40 UTC NOAA

KBML 060940Z AUTO 00000KT 1SM BR VV001 10/09 A3007 RMK AO2 T01000089


Station Type Date Time Source
KBML Decoded METAR 2020/07/06 09:40 UTC NOAA

BERLIN MUNICIPAL AIRPORT, NH, United States (KBML) 44-35N 71-11W 345M
Jul 06, 2020 - 05:40 AM EDT / 2020.07.06 0940 UTC
Wind: Calm:0
Visibility: 1 mile(s):0
Sky conditions: obscured
Weather: mist
Temperature: 50.0 F (10.0 C)
Dew Point: 48.0 F (8.9 C)
Relative Humidity: 92%
Pressure (altimeter): 30.07 in. Hg (1018 hPa)
ob: KBML 060940Z AUTO 00000KT 1SM BR VV001 10/09 A3007 RMK AO2 T01000089
cycle: 9

Station Type Date Time Source
KBML TAF UTC NOAA

Error!

Example: see airport list